Bitten Theresa — 9HA2337 — position and weather

sailwx.info

Track history (hours):
 
Tides and Currents Weather Stations Pressure Air Temp Water Temp Dewpoint Dewpoint Depression Visibility Wind Speed Wind Dir Waves Ship Positions

Bitten Theresa

Last reported at 2017-Nov-24 12:29 UTC. Time now 2017-Nov-24 12:43 UTC.
Position N 52°11' E 003°41'.

Length 106 m; draft 4.7 m.

Type: Tanker. MMSI: 248373000.

Date/timePositionNaut miles runAvg speedWind from/ knotsBaromVisibWave heightAir tempDewpointWater temp
2017-Nov-24 12:29N 52°11' E 003°41'0 0.0
2017-Nov-24 08:08N 52°11' E 003°41'0 0.0
2017-Nov-24 07:59N 52°11' E 003°41'0 0.0
2017-Nov-24 06:50N 52°11' E 003°41'0 0.0
2017-Nov-24 06:26N 52°11' E 003°41'0 0.0
2017-Nov-24 05:59N 52°11' E 003°41'0 0.0
2017-Nov-24 05:29N 52°11' E 003°41'0 0.0
2017-Nov-24 04:59N 52°11' E 003°41'0 0.0
2017-Nov-24 04:23N 52°11' E 003°41'0 0.0
2017-Nov-24 03:59N 52°11' E 003°41'0 0.0
2017-Nov-24 03:23N 52°11' E 003°41'0 0.0
2017-Nov-24 02:59N 52°11' E 003°41'0 0.0
2017-Nov-23 22:40N 52°11' E 003°41'0 1.4
2017-Nov-23 22:30N 52°11' E 003°41'  
2017-Nov-20 00:30N 51°05' E 003°44'0 0.0
2017-Nov-20 00:00N 51°05' E 003°44'0 0.0
2017-Nov-19 23:30N 51°05' E 003°44'0 0.0
2017-Nov-19 23:00N 51°05' E 003°44'0 0.0
2017-Nov-19 22:30N 51°05' E 003°44'0 0.0
2017-Nov-19 22:00N 51°05' E 003°44'0 0.0
2017-Nov-19 21:30N 51°05' E 003°44'0 0.0
2017-Nov-19 21:00N 51°05' E 003°44'0 0.0
2017-Nov-19 20:24N 51°05' E 003°44'0 0.0
2017-Nov-19 20:00N 51°05' E 003°44'0 0.0
2017-Nov-19 19:30N 51°05' E 003°44'0 0.0
2017-Nov-19 19:00N 51°05' E 003°44'0 0.0
2017-Nov-19 18:30N 51°05' E 003°44'0 0.0
2017-Nov-19 18:00N 51°05' E 003°44'0 0.0
2017-Nov-19 17:30N 51°05' E 003°44'0 0.0
2017-Nov-19 17:00N 51°05' E 003°44'0 0.0
2017-Nov-19 16:30N 51°05' E 003°44'0 0.0
2017-Nov-19 16:00N 51°05' E 003°44'0 0.0
2017-Nov-19 15:30N 51°05' E 003°44'0 0.0
2017-Nov-19 15:00N 51°05' E 003°44'1 2.0
2017-Nov-19 14:31N 51°06' E 003°44'3 5.6
2017-Nov-19 14:00N 51°08' E 003°46'3 6.4
2017-Nov-19 13:31N 51°11' E 003°48'3 6.5
2017-Nov-19 13:01N 51°14' E 003°49'3 6.3
2017-Nov-19 12:31N 51°17' E 003°50'3 5.2
2017-Nov-19 12:00N 51°20' E 003°49'0 0.0
2017-Nov-19 11:30N 51°20' E 003°49'1 2.1
2017-Nov-19 11:00N 51°21' E 003°49'5 9.8
2017-Nov-19 10:30N 51°24' E 003°43'4 8.1
2017-Nov-19 10:00N 51°26' E 003°37'5 9.9
2017-Nov-19 09:29N 51°25' E 003°29'510.7
2017-Nov-19 09:00N 51°24' E 003°21'510.0
2017-Nov-19 08:30N 51°24' E 003°13'5 9.1
2017-Nov-19 08:00N 51°24' E 003°05'4 8.5
2017-Nov-19 07:30N 51°23' E 002°59'4 8.8
2017-Nov-19 07:00N 51°22' E 002°52'6 8.6
2017-Nov-19 06:19N 51°22' E 002°43'3 7.5
2017-Nov-19 05:58N 51°21' E 002°38'3 4.8
2017-Nov-19 05:26N 51°22' E 002°34'3 5.4
2017-Nov-19 04:57N 51°22' E 002°30'2 4.7
2017-Nov-19 04:30N 51°21' E 002°27'3 5.1
2017-Nov-19 04:00N 51°20' E 002°23'3 5.3
2017-Nov-19 03:30N 51°18' E 002°20'4 7.9
2017-Nov-19 03:00N 51°16' E 002°14'611.7
2017-Nov-19 02:31N 51°13' E 002°07'612.0
2017-Nov-19 02:00N 51°10' E 001°58'612.5
2017-Nov-19 01:30N 51°08' E 001°49'612.6
2017-Nov-19 01:00N 51°03' E 001°42'713.1
2017-Nov-19 00:30N 50°58' E 001°35'6811.1
2017-Nov-18 18:26N 50°20' E 000°08'511.2
2017-Nov-18 18:00N 50°18' E 000°01'47 9.3
2017-Nov-18 12:55N 50°07' W 001°11'4 8.8
2017-Nov-18 12:30N 50°06' W 001°17'8 9.4
2017-Nov-18 11:42N 50°04' W 001°28'210.1
2017-Nov-18 11:30N 50°03' W 001°31'510.6
2017-Nov-18 11:01N 50°02' W 001°38'611.5
2017-Nov-18 10:30N 50°00' W 001°47'184 9.7
2017-Nov-17 15:35N 48°06' W 005°28'111.1
2017-Nov-17 15:29N 48°05' W 005°27'711.0
2017-Nov-17 14:53N 47°59' W 005°22'1110.8
2017-Nov-17 13:51N 47°52' W 005°10'411.6
2017-Nov-17 13:30N 47°49' W 005°05'611.2
2017-Nov-17 12:58N 47°46' W 004°57'811.3
2017-Nov-17 12:17N 47°42' W 004°48'711.3
2017-Nov-17 11:40N 47°39' W 004°39'411.1
2017-Nov-17 11:21N 47°37' W 004°34'511.3
2017-Nov-17 10:57N 47°34' W 004°29'711.2
2017-Nov-17 10:18N 47°31' W 004°20'611.2
2017-Nov-17 09:49N 47°28' W 004°13'5211.3
2017-Nov-17 05:14N 47°04' W 003°05'411.3
2017-Nov-17 04:53N 47°03' W 002°59'611.2
2017-Nov-17 04:20N 47°02' W 002°50'411.3
2017-Nov-17 04:00N 47°01' W 002°45'510.8
2017-Nov-17 03:30N 47°01' W 002°37'611.4
2017-Nov-17 03:01N 47°04' W 002°29'611.4
2017-Nov-17 02:31N 47°07' W 002°23'510.2
2017-Nov-17 02:00N 47°11' W 002°18'5 9.2
2017-Nov-17 01:31N 47°15' W 002°14'2 4.1
2017-Nov-17 01:00N 47°16' W 002°12'0 0.8
2017-Nov-17 00:31N 47°17' W 002°12'0 0.0
2017-Nov-17 00:00N 47°17' W 002°12'0 0.0
2017-Nov-16 23:31N 47°17' W 002°12'0 0.0
2017-Nov-16 23:00N 47°17' W 002°12'0 0.0
2017-Nov-16 22:30N 47°17' W 002°12'0 0.0
2017-Nov-16 22:00N 47°17' W 002°12'0 0.0
2017-Nov-16 21:30N 47°17' W 002°12'0 0.0
2017-Nov-16 21:00N 47°17' W 002°12'0 0.0
2017-Nov-16 20:30N 47°17' W 002°12'0 0.0
2017-Nov-16 20:00N 47°17' W 002°12'0 0.0
2017-Nov-16 19:27N 47°17' W 002°12'0 0.0
2017-Nov-16 18:09N 47°17' W 002°12'0 0.0
2017-Nov-16 18:00N 47°17' W 002°12'0 0.0
2017-Nov-16 17:27N 47°17' W 002°12'0 0.0
2017-Nov-16 16:48N 47°17' W 002°12'0 0.0
2017-Nov-16 13:21N 47°17' W 002°12'0 0.0
2017-Nov-16 10:57N 47°17' W 002°12'0 0.0
2017-Nov-16 09:45N 47°17' W 002°12'0 0.0
2017-Nov-16 09:15N 47°17' W 002°12'0 0.0
2017-Nov-16 08:57N 47°17' W 002°12'0 0.0
2017-Nov-16 08:21N 47°17' W 002°12'0 0.0
2017-Nov-16 08:00N 47°17' W 002°12'0 0.0
2017-Nov-16 07:27N 47°17' W 002°12'0 0.0
2017-Nov-16 06:57N 47°17' W 002°12'0 0.0
2017-Nov-16 06:27N 47°17' W 002°12'0 0.0
2017-Nov-16 05:57N 47°17' W 002°12'0 0.0
2017-Nov-16 05:27N 47°17' W 002°12'0 0.0
2017-Nov-16 04:39N 47°17' W 002°12'0 0.0
2017-Nov-16 04:30N 47°17' W 002°12'0 0.0
2017-Nov-16 04:00N 47°17' W 002°12'0 0.0
2017-Nov-16 03:30N 47°17' W 002°12'0 0.0
2017-Nov-16 02:33N 47°17' W 002°12'0 0.0
2017-Nov-16 02:27N 47°17' W 002°12'0 0.0
2017-Nov-16 01:57N 47°17' W 002°12'0 0.0
2017-Nov-16 01:27N 47°17' W 002°12'0 0.0
2017-Nov-16 00:45N 47°17' W 002°12'0 0.0
2017-Nov-15 23:15N 47°17' W 002°12'0 0.0
2017-Nov-15 22:51N 47°17' W 002°12'0 0.0
2017-Nov-15 21:15N 47°17' W 002°12'0 0.0
2017-Nov-15 20:45N 47°17' W 002°12'0 0.0
2017-Nov-15 16:50N 47°17' W 002°12'0 0.0
2017-Nov-15 16:30N 47°17' W 002°12'0 0.0
2017-Nov-15 16:00N 47°17' W 002°12'0 0.0
2017-Nov-15 15:30N 47°17' W 002°12'0 0.4
2017-Nov-15 15:00N 47°17' W 002°12'0 0.6
2017-Nov-15 14:27N 47°16' W 002°12'1 3.3
2017-Nov-15 14:00N 47°15' W 002°13'510.1
2017-Nov-15 13:30N 47°11' W 002°18'5 9.4
2017-Nov-15 13:00N 47°08' W 002°23'3 5.1
2017-Nov-15 12:28N 47°06' W 002°26'0 0.0
2017-Nov-15 12:00N 47°06' W 002°26'0 0.0
2017-Nov-15 11:30N 47°06' W 002°26'0 0.0
2017-Nov-15 11:00N 47°06' W 002°26'0 0.0
2017-Nov-15 10:30N 47°06' W 002°26'0 0.0
2017-Nov-15 10:00N 47°06' W 002°26'0 0.0
2017-Nov-15 09:30N 47°06' W 002°26'0 0.1
2017-Nov-15 08:51N 47°06' W 002°26'0 0.0
2017-Nov-15 08:30N 47°06' W 002°26'0 0.0
2017-Nov-15 07:51N 47°06' W 002°26'0 0.0
2017-Nov-15 07:30N 47°06' W 002°26'0 0.0
2017-Nov-15 07:00N 47°06' W 002°26'0 0.0
2017-Nov-15 06:27N 47°06' W 002°26'0 0.0
2017-Nov-15 06:00N 47°06' W 002°26'0 0.0
2017-Nov-15 05:30N 47°06' W 002°26'0 0.0
2017-Nov-15 04:51N 47°06' W 002°26'0 0.0
2017-Nov-15 04:24N 47°06' W 002°26'0 0.0
2017-Nov-15 03:46N 47°06' W 002°26'0 1.5
2017-Nov-15 03:30N 47°06' W 002°26'4 7.9
2017-Nov-15 02:59N 47°03' W 002°30'510.2
2017-Nov-15 02:30N 47°00' W 002°37'5 9.8
2017-Nov-15 02:00N 46°60' W 002°44'610.8
2017-Nov-15 01:30N 47°01' W 002°52'510.8
2017-Nov-15 00:59N 47°02' W 002°60'510.9
2017-Nov-15 00:30N 47°04' W 003°07'510.8
2017-Nov-15 00:01N 47°05' W 003°15'510.8
2017-Nov-14 23:30N 47°06' W 003°22'510.7
2017-Nov-14 23:00N 47°09' W 003°29'510.8
2017-Nov-14 22:30N 47°12' W 003°36'610.8
2017-Nov-14 21:58N 47°15' W 003°43'510.6
2017-Nov-14 21:28N 47°18' W 003°50'510.7
2017-Nov-14 21:00N 47°21' W 003°56'810.7
2017-Nov-14 20:16N 47°25' W 004°06'310.8
2017-Nov-14 19:58N 47°26' W 004°10'510.9
2017-Nov-14 19:30N 47°29' W 004°16'610.9
2017-Nov-14 18:55N 47°32' W 004°24'410.8
2017-Nov-14 18:30N 47°34' W 004°30'610.9
2017-Nov-14 17:56N 47°38' W 004°38'511.3
2017-Nov-14 17:30N 47°40' W 004°45'611.8
2017-Nov-14 17:01N 47°43' W 004°52'611.9
2017-Nov-14 16:30N 47°46' W 004°59'612.0
2017-Nov-14 16:00N 47°50' W 005°07'712.0
2017-Nov-14 15:24N 47°53' W 005°16'511.8
2017-Nov-14 14:57N 47°56' W 005°23'611.5
2017-Nov-14 14:27N 47°60' W 005°29'612.0
2017-Nov-14 13:56N 48°05' W 005°34'612.1
2017-Nov-14 13:26N 48°10' W 005°39'811.8
2017-Nov-14 12:47N 48°17' W 005°45'  
Track history (hours):
 
Tides and Currents Weather Stations Pressure Air Temp Water Temp Dewpoint Dewpoint Depression Visibility Wind Speed Wind Dir Waves Ship Positions

Bitten Theresa

Last reported at 2017-Nov-24 12:29 UTC. Time now 2017-Nov-24 12:43 UTC.
Position N 52°11' E 003°41'.

Length 106 m; draft 4.7 m.

Type: Tanker. MMSI: 248373000.

Date/timePositionNaut miles runAvg speedWind from/ knotsBaromVisibWave heightAir tempDewpointWater temp
2017-Nov-24 12:29N 52°11' E 003°41'0 0.0
2017-Nov-24 08:08N 52°11' E 003°41'0 0.0
2017-Nov-24 07:59N 52°11' E 003°41'0 0.0
2017-Nov-24 06:50N 52°11' E 003°41'0 0.0
2017-Nov-24 06:26N 52°11' E 003°41'0 0.0
2017-Nov-24 05:59N 52°11' E 003°41'0 0.0
2017-Nov-24 05:29N 52°11' E 003°41'0 0.0
2017-Nov-24 04:59N 52°11' E 003°41'0 0.0
2017-Nov-24 04:23N 52°11' E 003°41'0 0.0
2017-Nov-24 03:59N 52°11' E 003°41'0 0.0
2017-Nov-24 03:23N 52°11' E 003°41'0 0.0
2017-Nov-24 02:59N 52°11' E 003°41'0 0.0
2017-Nov-23 22:40N 52°11' E 003°41'0 1.4
2017-Nov-23 22:30N 52°11' E 003°41'  
2017-Nov-20 00:30N 51°05' E 003°44'0 0.0
2017-Nov-20 00:00N 51°05' E 003°44'0 0.0
2017-Nov-19 23:30N 51°05' E 003°44'0 0.0
2017-Nov-19 23:00N 51°05' E 003°44'0 0.0
2017-Nov-19 22:30N 51°05' E 003°44'0 0.0
2017-Nov-19 22:00N 51°05' E 003°44'0 0.0
2017-Nov-19 21:30N 51°05' E 003°44'0 0.0
2017-Nov-19 21:00N 51°05' E 003°44'0 0.0
2017-Nov-19 20:24N 51°05' E 003°44'0 0.0
2017-Nov-19 20:00N 51°05' E 003°44'0 0.0
2017-Nov-19 19:30N 51°05' E 003°44'0 0.0
2017-Nov-19 19:00N 51°05' E 003°44'0 0.0
2017-Nov-19 18:30N 51°05' E 003°44'0 0.0
2017-Nov-19 18:00N 51°05' E 003°44'0 0.0
2017-Nov-19 17:30N 51°05' E 003°44'0 0.0
2017-Nov-19 17:00N 51°05' E 003°44'0 0.0
2017-Nov-19 16:30N 51°05' E 003°44'0 0.0
2017-Nov-19 16:00N 51°05' E 003°44'0 0.0
2017-Nov-19 15:30N 51°05' E 003°44'0 0.0
2017-Nov-19 15:00N 51°05' E 003°44'1 2.0
2017-Nov-19 14:31N 51°06' E 003°44'3 5.6
2017-Nov-19 14:00N 51°08' E 003°46'3 6.4
2017-Nov-19 13:31N 51°11' E 003°48'3 6.5
2017-Nov-19 13:01N 51°14' E 003°49'3 6.3
2017-Nov-19 12:31N 51°17' E 003°50'3 5.2
2017-Nov-19 12:00N 51°20' E 003°49'0 0.0
2017-Nov-19 11:30N 51°20' E 003°49'1 2.1
2017-Nov-19 11:00N 51°21' E 003°49'5 9.8
2017-Nov-19 10:30N 51°24' E 003°43'4 8.1
2017-Nov-19 10:00N 51°26' E 003°37'5 9.9
2017-Nov-19 09:29N 51°25' E 003°29'510.7
2017-Nov-19 09:00N 51°24' E 003°21'510.0
2017-Nov-19 08:30N 51°24' E 003°13'5 9.1
2017-Nov-19 08:00N 51°24' E 003°05'4 8.5
2017-Nov-19 07:30N 51°23' E 002°59'4 8.8
2017-Nov-19 07:00N 51°22' E 002°52'6 8.6
2017-Nov-19 06:19N 51°22' E 002°43'3 7.5
2017-Nov-19 05:58N 51°21' E 002°38'3 4.8
2017-Nov-19 05:26N 51°22' E 002°34'3 5.4
2017-Nov-19 04:57N 51°22' E 002°30'2 4.7
2017-Nov-19 04:30N 51°21' E 002°27'3 5.1
2017-Nov-19 04:00N 51°20' E 002°23'3 5.3
2017-Nov-19 03:30N 51°18' E 002°20'4 7.9
2017-Nov-19 03:00N 51°16' E 002°14'611.7
2017-Nov-19 02:31N 51°13' E 002°07'612.0
2017-Nov-19 02:00N 51°10' E 001°58'612.5
2017-Nov-19 01:30N 51°08' E 001°49'612.6
2017-Nov-19 01:00N 51°03' E 001°42'713.1
2017-Nov-19 00:30N 50°58' E 001°35'6811.1
2017-Nov-18 18:26N 50°20' E 000°08'511.2
2017-Nov-18 18:00N 50°18' E 000°01'47 9.3
2017-Nov-18 12:55N 50°07' W 001°11'4 8.8
2017-Nov-18 12:30N 50°06' W 001°17'8 9.4
2017-Nov-18 11:42N 50°04' W 001°28'210.1
2017-Nov-18 11:30N 50°03' W 001°31'510.6
2017-Nov-18 11:01N 50°02' W 001°38'611.5
2017-Nov-18 10:30N 50°00' W 001°47'184 9.7
2017-Nov-17 15:35N 48°06' W 005°28'111.1
2017-Nov-17 15:29N 48°05' W 005°27'711.0
2017-Nov-17 14:53N 47°59' W 005°22'1110.8
2017-Nov-17 13:51N 47°52' W 005°10'411.6
2017-Nov-17 13:30N 47°49' W 005°05'611.2
2017-Nov-17 12:58N 47°46' W 004°57'811.3
2017-Nov-17 12:17N 47°42' W 004°48'711.3
2017-Nov-17 11:40N 47°39' W 004°39'411.1
2017-Nov-17 11:21N 47°37' W 004°34'511.3
2017-Nov-17 10:57N 47°34' W 004°29'711.2
2017-Nov-17 10:18N 47°31' W 004°20'611.2
2017-Nov-17 09:49N 47°28' W 004°13'5211.3
2017-Nov-17 05:14N 47°04' W 003°05'411.3
2017-Nov-17 04:53N 47°03' W 002°59'611.2
2017-Nov-17 04:20N 47°02' W 002°50'411.3
2017-Nov-17 04:00N 47°01' W 002°45'510.8
2017-Nov-17 03:30N 47°01' W 002°37'611.4
2017-Nov-17 03:01N 47°04' W 002°29'611.4
2017-Nov-17 02:31N 47°07' W 002°23'510.2
2017-Nov-17 02:00N 47°11' W 002°18'5 9.2
2017-Nov-17 01:31N 47°15' W 002°14'2 4.1
2017-Nov-17 01:00N 47°16' W 002°12'0 0.8
2017-Nov-17 00:31N 47°17' W 002°12'0 0.0
2017-Nov-17 00:00N 47°17' W 002°12'0 0.0
2017-Nov-16 23:31N 47°17' W 002°12'0 0.0
2017-Nov-16 23:00N 47°17' W 002°12'0 0.0
2017-Nov-16 22:30N 47°17' W 002°12'0 0.0
2017-Nov-16 22:00N 47°17' W 002°12'0 0.0
2017-Nov-16 21:30N 47°17' W 002°12'0 0.0
2017-Nov-16 21:00N 47°17' W 002°12'0 0.0
2017-Nov-16 20:30N 47°17' W 002°12'0 0.0
2017-Nov-16 20:00N 47°17' W 002°12'0 0.0
2017-Nov-16 19:27N 47°17' W 002°12'0 0.0
2017-Nov-16 18:09N 47°17' W 002°12'0 0.0
2017-Nov-16 18:00N 47°17' W 002°12'0 0.0
2017-Nov-16 17:27N 47°17' W 002°12'0 0.0
2017-Nov-16 16:48N 47°17' W 002°12'0 0.0
2017-Nov-16 13:21N 47°17' W 002°12'0 0.0
2017-Nov-16 10:57N 47°17' W 002°12'0 0.0
2017-Nov-16 09:45N 47°17' W 002°12'0 0.0
2017-Nov-16 09:15N 47°17' W 002°12'0 0.0
2017-Nov-16 08:57N 47°17' W 002°12'0 0.0
2017-Nov-16 08:21N 47°17' W 002°12'0 0.0
2017-Nov-16 08:00N 47°17' W 002°12'0 0.0
2017-Nov-16 07:27N 47°17' W 002°12'0 0.0
2017-Nov-16 06:57N 47°17' W 002°12'0 0.0
2017-Nov-16 06:27N 47°17' W 002°12'0 0.0
2017-Nov-16 05:57N 47°17' W 002°12'0 0.0
2017-Nov-16 05:27N 47°17' W 002°12'0 0.0
2017-Nov-16 04:39N 47°17' W 002°12'0 0.0
2017-Nov-16 04:30N 47°17' W 002°12'0 0.0
2017-Nov-16 04:00N 47°17' W 002°12'0 0.0
2017-Nov-16 03:30N 47°17' W 002°12'0 0.0
2017-Nov-16 02:33N 47°17' W 002°12'0 0.0
2017-Nov-16 02:27N 47°17' W 002°12'0 0.0
2017-Nov-16 01:57N 47°17' W 002°12'0 0.0
2017-Nov-16 01:27N 47°17' W 002°12'0 0.0
2017-Nov-16 00:45N 47°17' W 002°12'0 0.0
2017-Nov-15 23:15N 47°17' W 002°12'0 0.0
2017-Nov-15 22:51N 47°17' W 002°12'0 0.0
2017-Nov-15 21:15N 47°17' W 002°12'0 0.0
2017-Nov-15 20:45N 47°17' W 002°12'0 0.0
2017-Nov-15 16:50N 47°17' W 002°12'0 0.0
2017-Nov-15 16:30N 47°17' W 002°12'0 0.0
2017-Nov-15 16:00N 47°17' W 002°12'0 0.0
2017-Nov-15 15:30N 47°17' W 002°12'0 0.4
2017-Nov-15 15:00N 47°17' W 002°12'0 0.6
2017-Nov-15 14:27N 47°16' W 002°12'1 3.3
2017-Nov-15 14:00N 47°15' W 002°13'510.1
2017-Nov-15 13:30N 47°11' W 002°18'5 9.4
2017-Nov-15 13:00N 47°08' W 002°23'3 5.1
2017-Nov-15 12:28N 47°06' W 002°26'0 0.0
2017-Nov-15 12:00N 47°06' W 002°26'0 0.0
2017-Nov-15 11:30N 47°06' W 002°26'0 0.0
2017-Nov-15 11:00N 47°06' W 002°26'0 0.0
2017-Nov-15 10:30N 47°06' W 002°26'0 0.0
2017-Nov-15 10:00N 47°06' W 002°26'0 0.0
2017-Nov-15 09:30N 47°06' W 002°26'0 0.1
2017-Nov-15 08:51N 47°06' W 002°26'0 0.0
2017-Nov-15 08:30N 47°06' W 002°26'0 0.0
2017-Nov-15 07:51N 47°06' W 002°26'0 0.0
2017-Nov-15 07:30N 47°06' W 002°26'0 0.0
2017-Nov-15 07:00N 47°06' W 002°26'0 0.0
2017-Nov-15 06:27N 47°06' W 002°26'0 0.0
2017-Nov-15 06:00N 47°06' W 002°26'0 0.0
2017-Nov-15 05:30N 47°06' W 002°26'0 0.0
2017-Nov-15 04:51N 47°06' W 002°26'0 0.0
2017-Nov-15 04:24N 47°06' W 002°26'0 0.0
2017-Nov-15 03:46N 47°06' W 002°26'0 1.5
2017-Nov-15 03:30N 47°06' W 002°26'4 7.9
2017-Nov-15 02:59N 47°03' W 002°30'510.2
2017-Nov-15 02:30N 47°00' W 002°37'5 9.8
2017-Nov-15 02:00N 46°60' W 002°44'610.8
2017-Nov-15 01:30N 47°01' W 002°52'510.8
2017-Nov-15 00:59N 47°02' W 002°60'510.9
2017-Nov-15 00:30N 47°04' W 003°07'510.8
2017-Nov-15 00:01N 47°05' W 003°15'510.8
2017-Nov-14 23:30N 47°06' W 003°22'510.7
2017-Nov-14 23:00N 47°09' W 003°29'510.8
2017-Nov-14 22:30N 47°12' W 003°36'610.8
2017-Nov-14 21:58N 47°15' W 003°43'510.6
2017-Nov-14 21:28N 47°18' W 003°50'510.7
2017-Nov-14 21:00N 47°21' W 003°56'810.7
2017-Nov-14 20:16N 47°25' W 004°06'310.8
2017-Nov-14 19:58N 47°26' W 004°10'510.9
2017-Nov-14 19:30N 47°29' W 004°16'610.9
2017-Nov-14 18:55N 47°32' W 004°24'410.8
2017-Nov-14 18:30N 47°34' W 004°30'610.9
2017-Nov-14 17:56N 47°38' W 004°38'511.3
2017-Nov-14 17:30N 47°40' W 004°45'611.8
2017-Nov-14 17:01N 47°43' W 004°52'611.9
2017-Nov-14 16:30N 47°46' W 004°59'612.0
2017-Nov-14 16:00N 47°50' W 005°07'712.0
2017-Nov-14 15:24N 47°53' W 005°16'511.8
2017-Nov-14 14:57N 47°56' W 005°23'611.5
2017-Nov-14 14:27N 47°60' W 005°29'612.0
2017-Nov-14 13:56N 48°05' W 005°34'612.1
2017-Nov-14 13:26N 48°10' W 005°39'811.8
2017-Nov-14 12:47N 48°17' W 005°45'  

Dump ship's entire track history